createdAt,value
2019-03-22T00:00:51.763Z,102461.77
2019-03-22T00:03:21.761Z,102457.70
2019-03-22T00:05:51.910Z,102452.69
2019-03-22T00:08:22.051Z,102452.08
2019-03-22T00:10:52.241Z,102453.13
2019-03-22T00:13:22.311Z,102446.47
2019-03-22T00:15:52.414Z,102443.27
2019-03-22T00:18:22.311Z,102446.80
2019-03-22T00:20:52.479Z,102442.16
2019-03-22T00:23:22.440Z,102446.00
2019-03-22T00:25:52.475Z,102453.46
2019-03-22T00:28:22.564Z,102452.45
2019-03-22T00:30:52.513Z,102445.19
2019-03-22T00:33:22.663Z,102446.80
2019-03-22T00:35:52.538Z,102445.80
2019-03-22T00:38:22.665Z,102449.23
2019-03-22T00:40:52.722Z,102442.94
2019-03-22T00:43:22.911Z,102437.48
2019-03-22T00:45:52.981Z,102441.19
2019-03-22T00:48:24.953Z,102436.27
2019-03-22T00:50:54.858Z,102435.05
2019-03-22T00:53:25.029Z,102438.11
2019-03-22T00:55:55.030Z,102441.55
2019-03-22T00:58:25.012Z,102444.02
2019-03-22T01:00:55.068Z,102439.48
2019-03-22T01:03:25.229Z,102439.34
2019-03-22T01:05:55.669Z,102441.42
2019-03-22T01:08:25.751Z,102442.93
2019-03-22T01:10:55.990Z,102447.13
2019-03-22T01:13:26.872Z,102435.97
2019-03-22T01:15:56.806Z,102428.34
2019-03-22T01:18:27.304Z,102440.43
2019-03-22T01:20:57.373Z,102438.98
2019-03-22T01:23:27.312Z,102436.87
2019-03-22T01:25:57.431Z,102430.31
2019-03-22T01:28:27.528Z,102431.28
2019-03-22T01:30:59.851Z,102439.91
2019-03-22T01:33:30.109Z,102424.19
2019-03-22T01:36:00.176Z,102438.45
2019-03-22T01:38:30.291Z,102439.15
2019-03-22T01:41:00.448Z,102441.38
2019-03-22T01:43:30.642Z,102436.66
2019-03-22T01:46:00.554Z,102435.00
2019-03-22T01:48:33.084Z,102437.52
2019-03-22T01:51:03.142Z,102439.15
2019-03-22T01:53:33.328Z,102433.72
2019-03-22T01:56:03.406Z,102429.03
2019-03-22T01:58:35.945Z,102428.16
2019-03-22T02:01:05.975Z,102423.74
2019-03-22T02:03:36.084Z,102426.30
2019-03-22T02:06:06.190Z,102416.97
2019-03-22T02:08:36.225Z,102419.56
2019-03-22T02:11:06.213Z,102418.16
2019-03-22T02:13:36.433Z,102410.98
2019-03-22T02:16:06.529Z,102407.89
2019-03-22T02:18:36.605Z,102411.12
2019-03-22T02:21:06.650Z,102410.20
2019-03-22T02:23:36.674Z,102410.66
2019-03-22T02:26:06.841Z,102410.47
2019-03-22T02:28:36.988Z,102410.77
2019-03-22T02:31:06.926Z,102406.89
2019-03-22T02:33:36.941Z,102406.33
2019-03-22T02:36:07.075Z,102400.95
2019-03-22T02:38:37.073Z,102410.66
2019-03-22T02:41:07.185Z,102403.35
2019-03-22T02:43:37.226Z,102404.83
2019-03-22T02:46:07.292Z,102403.27
2019-03-22T02:48:37.293Z,102401.28
2019-03-22T02:51:07.364Z,102397.92
2019-03-22T02:53:37.358Z,102398.04
2019-03-22T02:56:07.510Z,102396.89
2019-03-22T02:58:37.585Z,102401.91
2019-03-22T03:01:07.487Z,102399.53
2019-03-22T03:03:37.492Z,102407.33
2019-03-22T03:06:07.381Z,102400.69
2019-03-22T03:08:37.350Z,102407.44
2019-03-22T03:11:07.362Z,102398.14
2019-03-22T03:13:37.471Z,102396.93
2019-03-22T03:16:07.469Z,102388.66
2019-03-22T03:18:37.387Z,102388.18
2019-03-22T03:21:07.411Z,102392.64
2019-03-22T03:23:37.383Z,102387.11
2019-03-22T03:26:08.110Z,102385.16
2019-03-22T03:28:38.044Z,102387.81
2019-03-22T03:31:08.086Z,102386.41
2019-03-22T03:33:38.142Z,102381.12
2019-03-22T03:36:08.013Z,102374.27
2019-03-22T03:38:37.961Z,102370.14
2019-03-22T03:41:09.597Z,102364.98
2019-03-22T03:43:40.097Z,102363.91
2019-03-22T03:46:10.141Z,102360.55
2019-03-22T03:48:40.080Z,102360.44
2019-03-22T03:51:10.088Z,102362.13
2019-03-22T03:53:40.082Z,102364.93
2019-03-22T03:56:10.083Z,102364.96
2019-03-22T03:58:51.524Z,102361.72
2019-03-22T04:01:11.863Z,102358.75
2019-03-22T04:03:41.840Z,102367.05
2019-03-22T04:06:11.861Z,102359.60
2019-03-22T04:08:41.790Z,102347.77
2019-03-22T04:11:11.671Z,102353.33
2019-03-22T04:13:41.823Z,102351.44
2019-03-22T04:16:11.830Z,102352.42
2019-03-22T04:18:41.887Z,102352.96
2019-03-22T04:21:11.934Z,102350.08
2019-03-22T04:23:41.965Z,102350.27
2019-03-22T04:26:12.032Z,102356.91
2019-03-22T04:28:42.124Z,102356.20
2019-03-22T04:31:12.093Z,102350.62
2019-03-22T04:33:42.115Z,102350.97
2019-03-22T04:36:14.361Z,102345.76
2019-03-22T04:38:44.359Z,102348.05
2019-03-22T04:41:14.393Z,102348.76
2019-03-22T04:43:44.328Z,102342.75
2019-03-22T04:46:15.353Z,102341.67
2019-03-22T04:48:45.720Z,102344.09
2019-03-22T04:51:15.989Z,102337.47
2019-03-22T04:53:51.319Z,102337.80
2019-03-22T04:56:22.674Z,102335.29
2019-03-22T04:58:53.819Z,102331.19
2019-03-22T05:01:24.464Z,102328.83
2019-03-22T05:03:54.953Z,102337.72
2019-03-22T05:06:25.075Z,102335.52
2019-03-22T05:08:56.772Z,102343.56
2019-03-22T05:11:27.062Z,102344.64
2019-03-22T05:13:58.595Z,102347.77
2019-03-22T05:16:29.103Z,102348.50
2019-03-22T05:19:00.699Z,102353.75
2019-03-22T05:21:31.111Z,102353.62
2019-03-22T05:24:03.382Z,102357.83
2019-03-22T05:26:34.642Z,102356.86
2019-03-22T05:29:05.684Z,102364.81
2019-03-22T05:32:07.483Z,102365.89
2019-03-22T05:34:37.569Z,102368.04
2019-03-22T05:37:07.592Z,102367.36
2019-03-22T05:39:37.653Z,102366.87
2019-03-22T05:42:07.847Z,102371.26
2019-03-22T05:44:37.939Z,102373.06
2019-03-22T05:47:08.048Z,102376.49
2019-03-22T05:49:38.045Z,102377.11
2019-03-22T05:52:08.200Z,102376.60
2019-03-22T05:54:38.171Z,102374.80
2019-03-22T05:57:13.364Z,102372.98
2019-03-22T05:59:42.918Z,102379.22
2019-03-22T06:02:11.812Z,102390.66
2019-03-22T06:04:41.957Z,102394.61
2019-03-22T06:07:11.952Z,102397.56
2019-03-22T06:09:42.055Z,102400.66
2019-03-22T06:12:12.115Z,102403.68
2019-03-22T06:14:42.192Z,102402.69
2019-03-22T06:17:12.276Z,102405.45
2019-03-22T06:19:42.250Z,102408.03
2019-03-22T06:22:12.300Z,102410.66
2019-03-22T06:24:42.315Z,102404.70
2019-03-22T06:27:12.323Z,102412.64
2019-03-22T06:29:53.317Z,102413.22
2019-03-22T06:32:14.292Z,102420.31
2019-03-22T06:34:44.242Z,102423.03
2019-03-22T06:37:14.306Z,102425.53
2019-03-22T06:39:44.268Z,102429.59
2019-03-22T06:42:14.262Z,102431.64
2019-03-22T06:44:44.409Z,102432.65
2019-03-22T06:47:14.399Z,102446.95
2019-03-22T06:49:44.359Z,102447.51
2019-03-22T06:52:14.426Z,102451.30
2019-03-22T06:54:44.346Z,102445.50
2019-03-22T06:57:14.378Z,102442.70
2019-03-22T06:59:44.383Z,102442.81
2019-03-22T07:02:14.537Z,102442.97
2019-03-22T07:04:44.608Z,102446.19
2019-03-22T07:07:14.710Z,102445.42
2019-03-22T07:09:44.812Z,102437.76
2019-03-22T07:12:14.868Z,102432.81
2019-03-22T07:14:44.987Z,102437.27
2019-03-22T07:17:15.104Z,102431.73
2019-03-22T07:19:45.197Z,102429.47
2019-03-22T07:22:15.348Z,102437.95
2019-03-22T07:24:45.338Z,102435.67
2019-03-22T07:27:15.512Z,102428.08
2019-03-22T07:29:45.602Z,102425.36
2019-03-22T07:32:15.729Z,102424.77
2019-03-22T07:34:45.788Z,102418.70
2019-03-22T07:37:15.892Z,102413.36
2019-03-22T07:39:46.042Z,102412.84
2019-03-22T07:42:17.574Z,102411.77
2019-03-22T07:44:47.844Z,102413.48
2019-03-22T07:47:18.004Z,102410.92
2019-03-22T07:49:48.169Z,102404.06
2019-03-22T07:52:18.125Z,102399.24
2019-03-22T07:54:48.185Z,102393.75
2019-03-22T07:57:18.250Z,102395.16
2019-03-22T07:59:48.283Z,102391.55
2019-03-22T08:02:20.522Z,102393.56
2019-03-22T08:04:50.619Z,102395.88
2019-03-22T08:07:20.737Z,102390.84
2019-03-22T08:09:51.374Z,102393.94
2019-03-22T08:12:21.730Z,102394.33
2019-03-22T08:14:51.686Z,102391.71
2019-03-22T08:17:21.915Z,102391.89
2019-03-22T08:19:52.012Z,102390.08
2019-03-22T08:22:22.070Z,102377.75
2019-03-22T08:24:52.904Z,102367.29
2019-03-22T08:27:23.059Z,102366.01
2019-03-22T08:29:53.115Z,102363.23
2019-03-22T08:32:23.185Z,102361.97
2019-03-22T08:34:53.347Z,102360.48
2019-03-22T08:37:23.601Z,102358.03
2019-03-22T08:39:55.940Z,102347.52
2019-03-22T08:42:25.574Z,102349.85
2019-03-22T08:44:55.692Z,102342.49
2019-03-22T08:47:33.658Z,102344.01
2019-03-22T08:49:57.469Z,102336.14
2019-03-22T08:52:27.615Z,102332.80
2019-03-22T08:54:57.574Z,102335.47
2019-03-22T08:57:27.668Z,102333.60
2019-03-22T08:59:57.704Z,102334.74
2019-03-22T09:02:27.662Z,102333.52
2019-03-22T09:04:57.984Z,102329.78
2019-03-22T09:07:28.038Z,102331.59
2019-03-22T09:09:57.981Z,102335.36
2019-03-22T09:12:27.986Z,102322.83
2019-03-22T09:14:59.239Z,102323.08
2019-03-22T09:17:29.418Z,102318.66
2019-03-22T09:19:59.513Z,102322.91
2019-03-22T09:22:29.574Z,102322.50
2019-03-22T09:24:59.652Z,102321.75
2019-03-22T09:27:29.669Z,102322.47
2019-03-22T09:29:59.668Z,102320.88
2019-03-22T09:32:29.776Z,102319.47
2019-03-22T09:34:59.939Z,102321.10
2019-03-22T09:37:30.090Z,102316.26
2019-03-22T09:40:00.481Z,102318.66
2019-03-22T09:42:30.480Z,102314.20
2019-03-22T09:45:00.516Z,102315.22
2019-03-22T09:47:30.568Z,102313.58
2019-03-22T09:50:00.650Z,102310.85
2019-03-22T09:52:33.573Z,102318.83
2019-03-22T09:55:12.475Z,102313.20
2019-03-22T09:57:34.175Z,102311.02
2019-03-22T10:00:04.610Z,102309.94
2019-03-22T10:02:34.752Z,102301.97
2019-03-22T10:05:07.960Z,102300.30
2019-03-22T10:07:38.139Z,102304.78
2019-03-22T10:10:08.211Z,102307.61
2019-03-22T10:12:38.265Z,102301.37
2019-03-22T10:15:08.408Z,102305.13
2019-03-22T10:17:38.485Z,102291.70
2019-03-22T10:20:08.729Z,102288.66
2019-03-22T10:22:38.717Z,102285.58
2019-03-22T10:25:08.854Z,102282.92
2019-03-22T10:27:38.887Z,102282.86
2019-03-22T10:30:09.210Z,102282.14
2019-03-22T10:32:39.547Z,102275.44
2019-03-22T10:35:10.224Z,102276.83
2019-03-22T10:37:40.543Z,102271.81
2019-03-22T10:40:10.567Z,102278.52
2019-03-22T10:42:40.678Z,102274.69
2019-03-22T10:45:11.615Z,102270.97
2019-03-22T10:47:41.551Z,102267.68
2019-03-22T10:50:11.629Z,102265.33
2019-03-22T10:52:41.646Z,102267.73
2019-03-22T10:55:28.586Z,102258.69
2019-03-22T10:57:43.560Z,102249.71
2019-03-22T11:00:16.754Z,102249.14
2019-03-22T11:02:47.090Z,102236.34
2019-03-22T11:05:17.434Z,102230.52
2019-03-22T11:07:47.415Z,102229.86
2019-03-22T11:10:17.425Z,102228.17
2019-03-22T11:12:47.545Z,102227.62
2019-03-22T11:15:18.055Z,102226.56
2019-03-22T11:17:48.126Z,102231.39
2019-03-22T11:20:18.205Z,102234.74
2019-03-22T11:22:48.310Z,102226.33
2019-03-22T11:25:18.405Z,102222.50
2019-03-22T11:27:48.580Z,102216.04
2019-03-22T11:30:22.042Z,102207.44
2019-03-22T11:32:52.151Z,102209.23
2019-03-22T11:35:22.289Z,102198.73
2019-03-22T11:37:52.206Z,102196.97
2019-03-22T11:40:22.139Z,102187.29
2019-03-22T11:42:52.308Z,102179.98
2019-03-22T11:45:24.497Z,102180.53
2019-03-22T11:47:54.582Z,102181.64
2019-03-22T11:50:24.684Z,102168.52
2019-03-22T11:52:54.764Z,102162.84
2019-03-22T11:55:24.779Z,102165.87
2019-03-22T11:57:54.967Z,102160.39
2019-03-22T12:00:25.149Z,102158.56
2019-03-22T12:02:55.229Z,102157.36
2019-03-22T12:05:25.412Z,102157.74
2019-03-22T12:07:55.460Z,102148.63
2019-03-22T12:10:25.650Z,102150.89
2019-03-22T12:12:55.835Z,102145.73
2019-03-22T12:15:26.371Z,102139.02
2019-03-22T12:17:56.470Z,102134.83
2019-03-22T12:20:26.648Z,102132.31
2019-03-22T12:22:56.775Z,102128.63
2019-03-22T12:25:27.024Z,102122.99
2019-03-22T12:27:57.151Z,102109.36
2019-03-22T12:30:27.117Z,102112.26
2019-03-22T12:32:57.148Z,102105.87
2019-03-22T12:35:27.314Z,102102.59
2019-03-22T12:37:57.823Z,102099.05
2019-03-22T12:40:27.980Z,102095.17
2019-03-22T12:42:58.028Z,102095.95
2019-03-22T12:45:28.449Z,102090.36
2019-03-22T12:47:58.498Z,102082.80
2019-03-22T12:50:28.964Z,102073.28
2019-03-22T12:52:59.143Z,102075.17
2019-03-22T12:55:29.288Z,102066.47
2019-03-22T12:57:59.583Z,102062.84
2019-03-22T13:00:29.747Z,102061.79
2019-03-22T13:02:59.730Z,102058.33
2019-03-22T13:05:29.861Z,102060.60
2019-03-22T13:07:59.876Z,102053.34
2019-03-22T13:10:30.247Z,102047.47
2019-03-22T13:13:00.192Z,102039.94
2019-03-22T13:15:30.272Z,102037.09
2019-03-22T13:18:00.189Z,102031.38
2019-03-22T13:20:30.332Z,102026.37
2019-03-22T13:23:00.369Z,102028.77
2019-03-22T13:25:30.546Z,102021.09
2019-03-22T13:28:00.693Z,102016.56
2019-03-22T13:30:34.995Z,102020.30
2019-03-22T13:33:05.248Z,102017.72
2019-03-22T13:35:35.306Z,101995.87
2019-03-22T13:38:05.346Z,101997.47
2019-03-22T13:40:35.435Z,101987.55
2019-03-22T13:43:05.503Z,101982.52
2019-03-22T13:45:35.600Z,101979.17
2019-03-22T13:48:05.743Z,101975.13
2019-03-22T13:50:36.652Z,101955.84
2019-03-22T13:53:06.684Z,101967.22
2019-03-22T13:55:36.848Z,101966.17
2019-03-22T13:58:06.866Z,101961.95
2019-03-22T14:00:36.963Z,101954.75
2019-03-22T14:03:07.147Z,101948.74
2019-03-22T14:05:37.134Z,101941.77
2019-03-22T14:08:07.238Z,101937.03
2019-03-22T14:10:37.376Z,101942.85
2019-03-22T14:13:07.930Z,101936.34
2019-03-22T14:15:37.981Z,101936.22
2019-03-22T14:18:08.128Z,101930.09
2019-03-22T14:20:38.108Z,101925.13
2019-03-22T14:23:08.089Z,101925.27
2019-03-22T14:25:38.048Z,101928.01
2019-03-22T14:28:08.028Z,101923.80
2019-03-22T14:30:38.021Z,101919.91
2019-03-22T14:33:13.343Z,101919.53
2019-03-22T14:35:39.913Z,101909.83
2019-03-22T14:38:09.893Z,101903.41
2019-03-22T14:40:39.894Z,101908.13
2019-03-22T14:57:58.417Z,101877.12
2019-03-22T15:00:28.494Z,101880.81
2019-03-22T15:02:58.439Z,101870.84
2019-03-22T15:05:28.246Z,101876.48
2019-03-22T15:07:58.666Z,101871.60
2019-03-22T15:10:28.484Z,101871.56
2019-03-22T15:12:58.715Z,101871.55
2019-03-22T15:16:05.946Z,101865.13
2019-03-22T15:18:58.224Z,101865.98
2019-03-22T15:21:52.941Z,101862.62
2019-03-22T15:24:33.066Z,101852.59
2019-03-22T15:27:20.504Z,101843.60
2019-03-22T15:30:21.398Z,101840.41
2019-03-22T15:33:04.576Z,101831.95
2019-03-22T15:35:52.441Z,101827.87
2019-03-22T15:38:50.689Z,101825.30
2019-03-22T15:41:20.785Z,101823.73
2019-03-22T15:43:50.660Z,101819.48
2019-03-22T15:46:20.528Z,101822.13
2019-03-22T15:48:50.628Z,101819.71
2019-03-22T15:51:20.540Z,101804.70
2019-03-22T15:53:50.554Z,101806.04
2019-03-22T15:56:20.391Z,101814.28
2019-03-22T15:58:50.321Z,101815.66
2019-03-22T16:01:20.314Z,101812.86
2019-03-22T16:03:50.180Z,101815.09
2019-03-22T16:06:20.096Z,101813.52
2019-03-22T16:08:49.937Z,101805.84
2019-03-22T16:11:19.960Z,101810.77
2019-03-22T16:13:49.974Z,101802.28
2019-03-22T16:16:40.843Z,101797.84
2019-03-22T16:19:10.807Z,101799.53
2019-03-22T16:21:40.829Z,101797.13
2019-03-22T16:24:11.887Z,101797.31
2019-03-22T16:26:41.771Z,101793.92
2019-03-22T16:29:12.911Z,101791.43
2019-03-22T16:31:42.923Z,101790.59
2019-03-22T16:34:12.860Z,101791.17
2019-03-22T16:36:42.826Z,101785.86
2019-03-22T16:39:12.826Z,101787.23
2019-03-22T16:41:42.786Z,101786.94
2019-03-22T16:44:12.692Z,101789.72
2019-03-22T16:46:42.583Z,101795.70
2019-03-22T16:49:14.511Z,101780.88
2019-03-22T16:51:44.512Z,101787.95
2019-03-22T16:54:14.483Z,101785.25
2019-03-22T16:56:44.354Z,101786.05
2019-03-22T16:59:14.714Z,101778.71
2019-03-22T17:01:44.786Z,101792.30
2019-03-22T17:04:14.870Z,101786.88
2019-03-22T17:06:44.872Z,101787.37
2019-03-22T17:09:15.023Z,101784.90
2019-03-22T17:11:45.387Z,101786.79
2019-03-22T17:14:15.360Z,101789.33
2019-03-22T17:16:46.304Z,101795.15
2019-03-22T17:19:17.388Z,101790.48
2019-03-22T17:21:47.863Z,101793.64
2019-03-22T17:24:17.900Z,101790.48
2019-03-22T17:26:47.775Z,101793.66
2019-03-22T17:29:17.967Z,101795.48
2019-03-22T17:31:47.929Z,101792.66
2019-03-22T17:34:18.010Z,101790.06
2019-03-22T17:36:48.043Z,101793.39
2019-03-22T17:39:18.166Z,101793.53
2019-03-22T17:41:48.105Z,101793.48
2019-03-22T17:44:18.184Z,101785.22
2019-03-22T17:46:49.301Z,101803.22
2019-03-22T17:49:19.283Z,101802.47
2019-03-22T17:51:49.315Z,101801.55
2019-03-22T17:54:19.181Z,101799.25
2019-03-22T17:56:53.779Z,101803.48
2019-03-22T17:59:29.926Z,101803.22
2019-03-22T18:02:00.109Z,101800.06
2019-03-22T18:04:30.123Z,101799.47
2019-03-22T18:07:00.130Z,101797.96
2019-03-22T18:09:30.474Z,101803.39
2019-03-22T18:12:00.868Z,101797.94
2019-03-22T18:14:30.941Z,101798.78
2019-03-22T18:17:01.116Z,101802.22
2019-03-22T18:19:31.125Z,101803.06
2019-03-22T18:22:01.262Z,101799.98
2019-03-22T18:24:31.346Z,101806.13
2019-03-22T18:27:01.549Z,101804.69
2019-03-22T18:29:31.657Z,101809.58
2019-03-22T18:32:01.836Z,101808.20
2019-03-22T18:34:34.526Z,101818.91
2019-03-22T18:37:04.027Z,101814.71
2019-03-22T18:39:34.206Z,101815.20
2019-03-22T18:42:04.459Z,101816.73
2019-03-22T18:44:34.700Z,101815.20
2019-03-22T18:47:04.957Z,101817.49
2019-03-22T18:49:35.337Z,101816.76
2019-03-22T18:52:05.572Z,101815.15
2019-03-22T18:54:35.927Z,101815.39
2019-03-22T18:57:06.972Z,101820.95
2019-03-22T18:59:37.249Z,101826.35
2019-03-22T19:02:07.437Z,101823.80
2019-03-22T19:04:43.886Z,101824.47
2019-03-22T19:07:10.522Z,101817.69
2019-03-22T19:09:40.941Z,101815.80
2019-03-22T19:12:11.172Z,101817.00
2019-03-22T19:14:41.377Z,101819.41
2019-03-22T19:17:11.461Z,101814.47
2019-03-22T19:19:41.760Z,101816.39
2019-03-22T19:22:11.980Z,101818.25
2019-03-22T19:24:42.540Z,101821.11
2019-03-22T19:27:17.227Z,101819.52
2019-03-22T19:29:48.506Z,101823.09
2019-03-22T19:32:18.619Z,101820.78
2019-03-22T19:34:54.309Z,101815.08
2019-03-22T19:37:21.518Z,101817.94
2019-03-22T19:39:51.666Z,101818.57
2019-03-22T19:42:21.845Z,101805.76
2019-03-22T19:44:52.097Z,101809.78
2019-03-22T19:47:22.292Z,101812.84
2019-03-22T19:49:52.601Z,101816.56
2019-03-22T19:52:23.415Z,101816.75
2019-03-22T19:54:53.735Z,101822.87
2019-03-22T19:57:23.950Z,101822.52
2019-03-22T19:59:54.191Z,101821.95
2019-03-22T20:02:24.425Z,101825.43
2019-03-22T20:05:04.227Z,101824.91
2019-03-22T20:07:27.203Z,101823.93
2019-03-22T20:09:57.582Z,101829.18
2019-03-22T20:12:27.823Z,101826.70
2019-03-22T20:14:57.977Z,101823.89
2019-03-22T20:17:28.207Z,101822.11
2019-03-22T20:19:58.521Z,101823.89
2019-03-22T20:22:28.750Z,101825.98
2019-03-22T20:24:58.897Z,101824.94
2019-03-22T20:27:29.178Z,101833.20
2019-03-22T20:29:59.277Z,101826.05
2019-03-22T20:32:29.506Z,101825.07
2019-03-22T20:34:59.722Z,101812.95
2019-03-22T20:37:31.211Z,101811.30
2019-03-22T20:40:01.443Z,101805.34
2019-03-22T20:42:31.678Z,101805.56
2019-03-22T20:45:01.758Z,101803.72
2019-03-22T20:47:31.966Z,101800.09
2019-03-22T20:50:02.288Z,101807.48
2019-03-22T20:52:32.561Z,101806.32
2019-03-22T20:55:02.823Z,101801.16
2019-03-22T20:57:33.059Z,101800.14
2019-03-22T21:00:03.195Z,101809.49
2019-03-22T21:02:33.440Z,101806.97
2019-03-22T21:05:03.600Z,101805.84
2019-03-22T21:07:33.829Z,101802.70
2019-03-22T21:10:04.049Z,101807.54
2019-03-22T21:12:34.139Z,101803.87
2019-03-22T21:15:04.719Z,101805.70
2019-03-22T21:17:34.867Z,101804.55
2019-03-22T21:20:05.575Z,101809.73
2019-03-22T21:22:35.686Z,101805.22
2019-03-22T21:25:06.447Z,101808.55
2019-03-22T21:27:36.614Z,101810.03
2019-03-22T21:30:09.733Z,101807.69
2019-03-22T21:32:45.326Z,101808.34
2019-03-22T21:35:21.840Z,101807.50
2019-03-22T21:37:44.987Z,101804.20
2019-03-22T21:40:15.107Z,101803.88
2019-03-22T21:42:45.400Z,101803.53
2019-03-22T21:45:15.732Z,101804.87
2019-03-22T21:47:45.915Z,101804.55
2019-03-22T21:50:16.029Z,101803.21
2019-03-22T21:52:46.148Z,101801.55
2019-03-22T21:55:16.108Z,101803.57
2019-03-22T21:57:45.907Z,101802.73
2019-03-22T22:00:15.947Z,101805.43
2019-03-22T22:02:45.907Z,101810.59
2019-03-22T22:05:15.865Z,101809.61
2019-03-22T22:07:45.979Z,101806.94
2019-03-22T22:10:15.964Z,101806.27
2019-03-22T22:12:45.789Z,101804.58
2019-03-22T22:15:15.794Z,101797.58
2019-03-22T22:17:45.701Z,101795.24
2019-03-22T22:20:15.688Z,101794.26
2019-03-22T22:22:45.576Z,101795.24
2019-03-22T22:25:15.422Z,101791.89
2019-03-22T22:27:45.319Z,101790.58
2019-03-22T22:30:15.255Z,101793.88
2019-03-22T22:32:45.067Z,101786.37
2019-03-22T22:35:15.067Z,101789.05
2019-03-22T22:37:44.880Z,101794.55
2019-03-22T22:40:14.953Z,101793.24
2019-03-22T22:42:44.981Z,101786.22
2019-03-22T22:45:14.938Z,101786.23
2019-03-22T22:47:44.844Z,101791.42
2019-03-22T22:50:15.279Z,101785.40
2019-03-22T22:52:45.176Z,101797.22
2019-03-22T22:55:15.128Z,101793.25
2019-03-22T22:57:45.076Z,101786.73
2019-03-22T23:00:16.679Z,101789.07
2019-03-22T23:02:46.682Z,101787.88
2019-03-22T23:05:16.615Z,101784.06
2019-03-22T23:07:46.409Z,101779.71
2019-03-22T23:10:16.438Z,101784.21
2019-03-22T23:12:46.328Z,101782.55
2019-03-22T23:15:16.353Z,101779.56
2019-03-22T23:17:46.200Z,101787.23
2019-03-22T23:20:16.160Z,101780.57
2019-03-22T23:22:46.098Z,101782.75
2019-03-22T23:25:16.620Z,101787.25
2019-03-22T23:27:46.531Z,101796.91
2019-03-22T23:30:16.468Z,101797.42
2019-03-22T23:32:46.278Z,101795.61
2019-03-22T23:35:16.192Z,101796.27
2019-03-22T23:37:46.059Z,101805.59
2019-03-22T23:40:16.030Z,101798.42
2019-03-22T23:42:45.850Z,101809.92
2019-03-22T23:45:15.658Z,101808.27
2019-03-22T23:47:45.534Z,101809.10
2019-03-22T23:50:15.350Z,101809.44
2019-03-22T23:52:45.182Z,101807.27
2019-03-22T23:55:15.110Z,101806.25
2019-03-22T23:57:44.896Z,101812.12
